sensor_id;sensor_type;location;lat;lon;timestamp;P1;durP1;ratioP1;P2;durP2;ratioP2
19280;SDS011;9774;52.034;5.342;2022-09-25T00:01:10;2.28;;;1.00;;
19280;SDS011;9774;52.034;5.342;2022-09-25T00:03:39;1.15;;;0.85;;
19280;SDS011;9774;52.034;5.342;2022-09-25T00:06:08;2.67;;;0.82;;
19280;SDS011;9774;52.034;5.342;2022-09-25T00:08:39;2.83;;;1.10;;
19280;SDS011;9774;52.034;5.342;2022-09-25T00:11:07;2.67;;;0.70;;
19280;SDS011;9774;52.034;5.342;2022-09-25T00:13:36;1.50;;;0.88;;
19280;SDS011;9774;52.034;5.342;2022-09-25T00:16:05;1.55;;;0.70;;
19280;SDS011;9774;52.034;5.342;2022-09-25T00:18:34;1.17;;;0.80;;
19280;SDS011;9774;52.034;5.342;2022-09-25T00:21:20;2.10;;;1.08;;
19280;SDS011;9774;52.034;5.342;2022-09-25T00:23:55;7.35;;;1.20;;
19280;SDS011;9774;52.034;5.342;2022-09-25T00:26:24;2.08;;;0.85;;
19280;SDS011;9774;52.034;5.342;2022-09-25T00:28:53;2.53;;;1.00;;
19280;SDS011;9774;52.034;5.342;2022-09-25T00:31:22;2.05;;;0.65;;
19280;SDS011;9774;52.034;5.342;2022-09-25T00:33:49;1.75;;;1.00;;
19280;SDS011;9774;52.034;5.342;2022-09-25T00:36:17;3.28;;;1.00;;
19280;SDS011;9774;52.034;5.342;2022-09-25T00:38:46;3.67;;;1.67;;
19280;SDS011;9774;52.034;5.342;2022-09-25T00:41:15;3.72;;;1.20;;
19280;SDS011;9774;52.034;5.342;2022-09-25T00:43:45;1.20;;;1.00;;
19280;SDS011;9774;52.034;5.342;2022-09-25T00:46:15;1.50;;;1.00;;
19280;SDS011;9774;52.034;5.342;2022-09-25T00:48:47;3.22;;;1.20;;
19280;SDS011;9774;52.034;5.342;2022-09-25T00:51:17;3.70;;;1.38;;
19280;SDS011;9774;52.034;5.342;2022-09-25T00:53:55;1.58;;;1.10;;
19280;SDS011;9774;52.034;5.342;2022-09-25T00:56:25;2.78;;;0.80;;
19280;SDS011;9774;52.034;5.342;2022-09-25T00:58:58;1.70;;;1.05;;
19280;SDS011;9774;52.034;5.342;2022-09-25T01:01:26;2.17;;;1.00;;
19280;SDS011;9774;52.034;5.342;2022-09-25T01:03:53;2.95;;;1.08;;
19280;SDS011;9774;52.034;5.342;2022-09-25T01:06:21;3.30;;;0.93;;
19280;SDS011;9774;52.034;5.342;2022-09-25T01:08:51;1.08;;;0.80;;
19280;SDS011;9774;52.034;5.342;2022-09-25T01:11:20;1.77;;;0.80;;
19280;SDS011;9774;52.034;5.342;2022-09-25T01:13:48;0.95;;;0.60;;
19280;SDS011;9774;52.034;5.342;2022-09-25T01:16:18;3.40;;;1.13;;
19280;SDS011;9774;52.034;5.342;2022-09-25T01:18:55;3.83;;;1.00;;
19280;SDS011;9774;52.034;5.342;2022-09-25T01:21:32;4.88;;;1.02;;
19280;SDS011;9774;52.034;5.342;2022-09-25T01:24:04;3.28;;;0.95;;
19280;SDS011;9774;52.034;5.342;2022-09-25T01:29:46;3.70;;;0.95;;
19280;SDS011;9774;52.034;5.342;2022-09-25T01:32:19;1.70;;;1.00;;
19280;SDS011;9774;52.034;5.342;2022-09-25T01:34:55;2.03;;;0.95;;
19280;SDS011;9774;52.034;5.342;2022-09-25T01:37:28;3.53;;;1.35;;
19280;SDS011;9774;52.034;5.342;2022-09-25T01:40:04;3.53;;;0.85;;
19280;SDS011;9774;52.034;5.342;2022-09-25T01:42:36;2.60;;;0.70;;
19280;SDS011;9774;52.034;5.342;2022-09-25T01:45:16;2.10;;;1.00;;
19280;SDS011;9774;52.034;5.342;2022-09-25T01:47:47;3.17;;;0.73;;
19280;SDS011;9774;52.034;5.342;2022-09-25T01:50:18;1.15;;;0.68;;
19280;SDS011;9774;52.034;5.342;2022-09-25T01:52:51;1.05;;;0.85;;
19280;SDS011;9774;52.034;5.342;2022-09-25T01:55:25;1.48;;;0.60;;
19280;SDS011;9774;52.034;5.342;2022-09-25T01:57:56;1.30;;;0.80;;
19280;SDS011;9774;52.034;5.342;2022-09-25T02:00:29;1.45;;;0.70;;
19280;SDS011;9774;52.034;5.342;2022-09-25T02:03:04;1.88;;;0.70;;
19280;SDS011;9774;52.034;5.342;2022-09-25T02:05:38;2.90;;;0.75;;
19280;SDS011;9774;52.034;5.342;2022-09-25T02:08:10;3.10;;;0.85;;
19280;SDS011;9774;52.034;5.342;2022-09-25T02:10:44;4.60;;;1.20;;
19280;SDS011;9774;52.034;5.342;2022-09-25T02:13:15;4.45;;;1.48;;
19280;SDS011;9774;52.034;5.342;2022-09-25T02:15:46;0.70;;;0.57;;
19280;SDS011;9774;52.034;5.342;2022-09-25T02:18:17;1.65;;;1.10;;
19280;SDS011;9774;52.034;5.342;2022-09-25T02:21:07;1.20;;;0.80;;
19280;SDS011;9774;52.034;5.342;2022-09-25T02:23:43;2.00;;;0.90;;
19280;SDS011;9774;52.034;5.342;2022-09-25T02:26:19;1.25;;;0.75;;
19280;SDS011;9774;52.034;5.342;2022-09-25T02:28:50;1.92;;;0.95;;
19280;SDS011;9774;52.034;5.342;2022-09-25T02:31:20;1.90;;;0.70;;
19280;SDS011;9774;52.034;5.342;2022-09-25T02:33:50;2.33;;;0.90;;
19280;SDS011;9774;52.034;5.342;2022-09-25T02:36:18;4.30;;;0.85;;
19280;SDS011;9774;52.034;5.342;2022-09-25T02:38:48;1.65;;;0.80;;
19280;SDS011;9774;52.034;5.342;2022-09-25T02:41:18;1.58;;;0.70;;
19280;SDS011;9774;52.034;5.342;2022-09-25T02:43:57;1.10;;;0.55;;
19280;SDS011;9774;52.034;5.342;2022-09-25T02:46:34;1.38;;;0.82;;
19280;SDS011;9774;52.034;5.342;2022-09-25T02:49:14;1.63;;;0.70;;
19280;SDS011;9774;52.034;5.342;2022-09-25T02:51:50;1.65;;;0.90;;
19280;SDS011;9774;52.034;5.342;2022-09-25T02:54:22;1.67;;;0.82;;
19280;SDS011;9774;52.034;5.342;2022-09-25T02:56:58;1.23;;;0.80;;
19280;SDS011;9774;52.034;5.342;2022-09-25T02:59:31;0.77;;;0.70;;
19280;SDS011;9774;52.034;5.342;2022-09-25T03:02:02;1.40;;;0.52;;
19280;SDS011;9774;52.034;5.342;2022-09-25T03:04:30;2.60;;;0.70;;
19280;SDS011;9774;52.034;5.342;2022-09-25T03:07:00;0.80;;;0.80;;
19280;SDS011;9774;52.034;5.342;2022-09-25T03:09:28;1.92;;;1.20;;
19280;SDS011;9774;52.034;5.342;2022-09-25T03:11:57;1.33;;;0.88;;
19280;SDS011;9774;52.034;5.342;2022-09-25T03:14:28;1.40;;;1.05;;
19280;SDS011;9774;52.034;5.342;2022-09-25T03:16:56;1.65;;;0.68;;
19280;SDS011;9774;52.034;5.342;2022-09-25T03:19:27;2.50;;;0.98;;
19280;SDS011;9774;52.034;5.342;2022-09-25T03:21:54;0.98;;;0.77;;
19280;SDS011;9774;52.034;5.342;2022-09-25T03:24:22;1.50;;;0.88;;
19280;SDS011;9774;52.034;5.342;2022-09-25T03:26:49;2.63;;;1.00;;
19280;SDS011;9774;52.034;5.342;2022-09-25T03:29:17;1.25;;;0.70;;
19280;SDS011;9774;52.034;5.342;2022-09-25T03:31:45;1.42;;;0.90;;
19280;SDS011;9774;52.034;5.342;2022-09-25T03:34:14;1.38;;;1.00;;
19280;SDS011;9774;52.034;5.342;2022-09-25T03:36:44;1.83;;;0.90;;
19280;SDS011;9774;52.034;5.342;2022-09-25T03:39:13;3.00;;;1.10;;
19280;SDS011;9774;52.034;5.342;2022-09-25T03:41:41;1.30;;;0.90;;
19280;SDS011;9774;52.034;5.342;2022-09-25T03:44:09;1.20;;;0.70;;
19280;SDS011;9774;52.034;5.342;2022-09-25T03:46:36;1.02;;;0.93;;
19280;SDS011;9774;52.034;5.342;2022-09-25T03:49:04;0.93;;;0.77;;
19280;SDS011;9774;52.034;5.342;2022-09-25T03:51:32;4.28;;;1.00;;
19280;SDS011;9774;52.034;5.342;2022-09-25T03:54:00;1.08;;;0.90;;
19280;SDS011;9774;52.034;5.342;2022-09-25T03:56:28;1.35;;;1.17;;
19280;SDS011;9774;52.034;5.342;2022-09-25T03:58:56;1.77;;;0.82;;
19280;SDS011;9774;52.034;5.342;2022-09-25T04:01:24;2.97;;;0.90;;
19280;SDS011;9774;52.034;5.342;2022-09-25T04:03:53;0.80;;;0.75;;
19280;SDS011;9774;52.034;5.342;2022-09-25T04:06:21;1.23;;;0.85;;
19280;SDS011;9774;52.034;5.342;2022-09-25T04:08:50;1.45;;;1.25;;
19280;SDS011;9774;52.034;5.342;2022-09-25T04:11:20;1.45;;;0.70;;
19280;SDS011;9774;52.034;5.342;2022-09-25T04:13:48;1.13;;;0.82;;
19280;SDS011;9774;52.034;5.342;2022-09-25T04:16:16;4.10;;;1.08;;
19280;SDS011;9774;52.034;5.342;2022-09-25T04:18:44;1.33;;;1.20;;
19280;SDS011;9774;52.034;5.342;2022-09-25T04:21:12;0.98;;;0.73;;
19280;SDS011;9774;52.034;5.342;2022-09-25T04:23:40;4.15;;;1.27;;
19280;SDS011;9774;52.034;5.342;2022-09-25T04:26:29;2.58;;;1.15;;
19280;SDS011;9774;52.034;5.342;2022-09-25T04:28:57;1.60;;;1.27;;
19280;SDS011;9774;52.034;5.342;2022-09-25T04:31:26;1.75;;;1.05;;
19280;SDS011;9774;52.034;5.342;2022-09-25T04:33:53;2.17;;;1.02;;
19280;SDS011;9774;52.034;5.342;2022-09-25T04:36:20;1.52;;;0.80;;
19280;SDS011;9774;52.034;5.342;2022-09-25T04:38:47;2.42;;;1.15;;
19280;SDS011;9774;52.034;5.342;2022-09-25T04:41:14;1.63;;;0.98;;
19280;SDS011;9774;52.034;5.342;2022-09-25T04:43:45;2.65;;;0.93;;
19280;SDS011;9774;52.034;5.342;2022-09-25T04:46:12;2.70;;;0.80;;
19280;SDS011;9774;52.034;5.342;2022-09-25T04:48:42;1.33;;;0.82;;
19280;SDS011;9774;52.034;5.342;2022-09-25T04:51:10;2.05;;;1.05;;
19280;SDS011;9774;52.034;5.342;2022-09-25T04:53:38;1.08;;;0.93;;
19280;SDS011;9774;52.034;5.342;2022-09-25T04:56:06;1.20;;;1.00;;
19280;SDS011;9774;52.034;5.342;2022-09-25T04:58:35;2.35;;;0.90;;
19280;SDS011;9774;52.034;5.342;2022-09-25T05:01:06;1.63;;;1.05;;
19280;SDS011;9774;52.034;5.342;2022-09-25T05:03:34;2.60;;;0.80;;
19280;SDS011;9774;52.034;5.342;2022-09-25T05:06:01;2.85;;;1.40;;
19280;SDS011;9774;52.034;5.342;2022-09-25T05:08:29;1.92;;;1.20;;
19280;SDS011;9774;52.034;5.342;2022-09-25T05:10:56;1.38;;;1.10;;
19280;SDS011;9774;52.034;5.342;2022-09-25T05:13:23;2.33;;;1.00;;
19280;SDS011;9774;52.034;5.342;2022-09-25T05:15:52;2.00;;;1.15;;
19280;SDS011;9774;52.034;5.342;2022-09-25T05:18:22;1.67;;;1.10;;
19280;SDS011;9774;52.034;5.342;2022-09-25T05:20:51;1.70;;;1.20;;
19280;SDS011;9774;52.034;5.342;2022-09-25T05:23:18;2.80;;;1.08;;
19280;SDS011;9774;52.034;5.342;2022-09-25T05:25:50;2.45;;;1.42;;
19280;SDS011;9774;52.034;5.342;2022-09-25T05:28:17;1.23;;;0.90;;
19280;SDS011;9774;52.034;5.342;2022-09-25T05:30:45;2.28;;;0.90;;
19280;SDS011;9774;52.034;5.342;2022-09-25T05:33:12;2.10;;;1.13;;
19280;SDS011;9774;52.034;5.342;2022-09-25T05:35:41;2.35;;;1.30;;
19280;SDS011;9774;52.034;5.342;2022-09-25T05:38:08;2.92;;;0.82;;
19280;SDS011;9774;52.034;5.342;2022-09-25T05:40:36;1.52;;;1.10;;
19280;SDS011;9774;52.034;5.342;2022-09-25T05:43:04;1.38;;;1.10;;
19280;SDS011;9774;52.034;5.342;2022-09-25T05:45:31;1.40;;;1.25;;
19280;SDS011;9774;52.034;5.342;2022-09-25T05:48:00;3.38;;;0.95;;
19280;SDS011;9774;52.034;5.342;2022-09-25T05:50:28;1.67;;;0.90;;
19280;SDS011;9774;52.034;5.342;2022-09-25T05:52:58;1.42;;;1.08;;
19280;SDS011;9774;52.034;5.342;2022-09-25T05:55:27;2.38;;;0.85;;
19280;SDS011;9774;52.034;5.342;2022-09-25T05:57:58;2.97;;;0.95;;
19280;SDS011;9774;52.034;5.342;2022-09-25T06:00:26;1.40;;;0.88;;
19280;SDS011;9774;52.034;5.342;2022-09-25T06:02:56;1.08;;;0.70;;
19280;SDS011;9774;52.034;5.342;2022-09-25T06:05:23;1.70;;;1.00;;
19280;SDS011;9774;52.034;5.342;2022-09-25T06:07:51;3.50;;;0.90;;
19280;SDS011;9774;52.034;5.342;2022-09-25T06:10:20;1.38;;;1.17;;
19280;SDS011;9774;52.034;5.342;2022-09-25T06:12:50;1.30;;;1.13;;
19280;SDS011;9774;52.034;5.342;2022-09-25T06:15:22;1.30;;;0.88;;
19280;SDS011;9774;52.034;5.342;2022-09-25T06:17:50;1.92;;;0.90;;
19280;SDS011;9774;52.034;5.342;2022-09-25T06:20:17;1.77;;;1.00;;
19280;SDS011;9774;52.034;5.342;2022-09-25T06:22:50;1.55;;;1.02;;
19280;SDS011;9774;52.034;5.342;2022-09-25T06:25:19;2.15;;;1.08;;
19280;SDS011;9774;52.034;5.342;2022-09-25T06:27:47;1.17;;;0.90;;
19280;SDS011;9774;52.034;5.342;2022-09-25T06:30:17;1.05;;;0.80;;
19280;SDS011;9774;52.034;5.342;2022-09-25T06:32:45;1.85;;;1.30;;
19280;SDS011;9774;52.034;5.342;2022-09-25T06:35:13;1.63;;;1.10;;
19280;SDS011;9774;52.034;5.342;2022-09-25T06:37:40;1.75;;;1.35;;
19280;SDS011;9774;52.034;5.342;2022-09-25T06:40:08;1.60;;;1.13;;
19280;SDS011;9774;52.034;5.342;2022-09-25T06:42:36;2.28;;;1.33;;
19280;SDS011;9774;52.034;5.342;2022-09-25T06:45:04;4.00;;;2.10;;
19280;SDS011;9774;52.034;5.342;2022-09-25T06:47:34;2.63;;;1.58;;
19280;SDS011;9774;52.034;5.342;2022-09-25T06:50:02;1.50;;;1.08;;
19280;SDS011;9774;52.034;5.342;2022-09-25T06:52:30;2.00;;;1.13;;
19280;SDS011;9774;52.034;5.342;2022-09-25T06:54:58;2.10;;;1.30;;
19280;SDS011;9774;52.034;5.342;2022-09-25T06:57:25;2.15;;;1.40;;
19280;SDS011;9774;52.034;5.342;2022-09-25T06:59:54;2.78;;;1.50;;
19280;SDS011;9774;52.034;5.342;2022-09-25T07:02:21;1.52;;;1.17;;
19280;SDS011;9774;52.034;5.342;2022-09-25T07:05:06;4.50;;;1.85;;
19280;SDS011;9774;52.034;5.342;2022-09-25T07:07:34;2.63;;;2.00;;
19280;SDS011;9774;52.034;5.342;2022-09-25T07:10:01;2.92;;;2.50;;
19280;SDS011;9774;52.034;5.342;2022-09-25T07:12:29;2.42;;;1.85;;
19280;SDS011;9774;52.034;5.342;2022-09-25T07:14:58;1.63;;;1.10;;
19280;SDS011;9774;52.034;5.342;2022-09-25T07:17:26;2.28;;;1.13;;
19280;SDS011;9774;52.034;5.342;2022-09-25T07:19:53;3.50;;;1.45;;
19280;SDS011;9774;52.034;5.342;2022-09-25T07:22:20;3.50;;;1.27;;
19280;SDS011;9774;52.034;5.342;2022-09-25T07:24:48;2.53;;;1.27;;
19280;SDS011;9774;52.034;5.342;2022-09-25T07:27:15;2.42;;;1.52;;
19280;SDS011;9774;52.034;5.342;2022-09-25T07:29:42;1.55;;;1.40;;
19280;SDS011;9774;52.034;5.342;2022-09-25T07:32:11;2.85;;;1.10;;
19280;SDS011;9774;52.034;5.342;2022-09-25T07:34:38;2.08;;;1.23;;
19280;SDS011;9774;52.034;5.342;2022-09-25T07:37:06;3.50;;;1.00;;
19280;SDS011;9774;52.034;5.342;2022-09-25T07:39:33;1.95;;;1.25;;
19280;SDS011;9774;52.034;5.342;2022-09-25T07:42:01;1.40;;;1.20;;
19280;SDS011;9774;52.034;5.342;2022-09-25T07:44:28;1.27;;;0.93;;
19280;SDS011;9774;52.034;5.342;2022-09-25T07:46:55;1.52;;;1.05;;
19280;SDS011;9774;52.034;5.342;2022-09-25T07:49:24;4.13;;;1.30;;
19280;SDS011;9774;52.034;5.342;2022-09-25T07:51:53;3.65;;;1.27;;
19280;SDS011;9774;52.034;5.342;2022-09-25T07:54:20;4.05;;;1.08;;
19280;SDS011;9774;52.034;5.342;2022-09-25T07:56:48;2.20;;;1.10;;
19280;SDS011;9774;52.034;5.342;2022-09-25T07:59:16;1.85;;;1.00;;
19280;SDS011;9774;52.034;5.342;2022-09-25T08:01:43;2.38;;;0.90;;
19280;SDS011;9774;52.034;5.342;2022-09-25T08:04:10;3.60;;;1.40;;
19280;SDS011;9774;52.034;5.342;2022-09-25T08:06:39;1.25;;;0.80;;
19280;SDS011;9774;52.034;5.342;2022-09-25T08:09:06;1.75;;;0.82;;
19280;SDS011;9774;52.034;5.342;2022-09-25T08:11:35;0.70;;;0.47;;
19280;SDS011;9774;52.034;5.342;2022-09-25T08:14:03;1.52;;;0.70;;
19280;SDS011;9774;52.034;5.342;2022-09-25T08:16:30;0.90;;;0.63;;
19280;SDS011;9774;52.034;5.342;2022-09-25T08:18:57;1.83;;;0.98;;
19280;SDS011;9774;52.034;5.342;2022-09-25T08:21:25;1.52;;;0.70;;
19280;SDS011;9774;52.034;5.342;2022-09-25T08:23:53;1.55;;;0.70;;
19280;SDS011;9774;52.034;5.342;2022-09-25T08:26:21;1.45;;;0.50;;
19280;SDS011;9774;52.034;5.342;2022-09-25T08:28:48;1.88;;;0.60;;
19280;SDS011;9774;52.034;5.342;2022-09-25T08:31:16;1.00;;;0.50;;
19280;SDS011;9774;52.034;5.342;2022-09-25T08:33:43;3.92;;;0.65;;
19280;SDS011;9774;52.034;5.342;2022-09-25T08:36:11;0.98;;;0.55;;
19280;SDS011;9774;52.034;5.342;2022-09-25T08:38:38;1.27;;;0.68;;
19280;SDS011;9774;52.034;5.342;2022-09-25T08:41:08;3.03;;;0.50;;
19280;SDS011;9774;52.034;5.342;2022-09-25T08:43:41;2.10;;;0.43;;
19280;SDS011;9774;52.034;5.342;2022-09-25T08:46:15;2.55;;;0.50;;
19280;SDS011;9774;52.034;5.342;2022-09-25T08:49:03;0.93;;;0.57;;
19280;SDS011;9774;52.034;5.342;2022-09-25T08:51:34;2.05;;;0.60;;
19280;SDS011;9774;52.034;5.342;2022-09-25T08:54:03;0.95;;;0.50;;
19280;SDS011;9774;52.034;5.342;2022-09-25T08:56:33;1.95;;;0.30;;
19280;SDS011;9774;52.034;5.342;2022-09-25T08:59:02;4.15;;;0.55;;
19280;SDS011;9774;52.034;5.342;2022-09-25T09:01:38;2.25;;;0.30;;
19280;SDS011;9774;52.034;5.342;2022-09-25T09:04:20;0.73;;;0.40;;
19280;SDS011;9774;52.034;5.342;2022-09-25T09:06:52;3.20;;;0.70;;
19280;SDS011;9774;52.034;5.342;2022-09-25T09:09:30;0.85;;;0.32;;
19280;SDS011;9774;52.034;5.342;2022-09-25T09:12:05;1.38;;;0.40;;
19280;SDS011;9774;52.034;5.342;2022-09-25T09:14:38;0.70;;;0.30;;
19280;SDS011;9774;52.034;5.342;2022-09-25T09:17:11;1.20;;;0.60;;
19280;SDS011;9774;52.034;5.342;2022-09-25T09:19:42;1.88;;;0.40;;
19280;SDS011;9774;52.034;5.342;2022-09-25T09:22:13;2.15;;;0.30;;
19280;SDS011;9774;52.034;5.342;2022-09-25T09:24:48;0.63;;;0.30;;
19280;SDS011;9774;52.034;5.342;2022-09-25T09:27:27;0.38;;;0.10;;
19280;SDS011;9774;52.034;5.342;2022-09-25T09:30:09;1.85;;;0.30;;
19280;SDS011;9774;52.034;5.342;2022-09-25T09:32:47;1.17;;;0.30;;
19280;SDS011;9774;52.034;5.342;2022-09-25T09:35:26;2.70;;;0.30;;
19280;SDS011;9774;52.034;5.342;2022-09-25T09:38:02;1.33;;;0.60;;
19280;SDS011;9774;52.034;5.342;2022-09-25T09:40:43;0.85;;;0.30;;
19280;SDS011;9774;52.034;5.342;2022-09-25T09:43:35;2.38;;;0.50;;
19280;SDS011;9774;52.034;5.342;2022-09-25T09:46:12;0.60;;;0.40;;
19280;SDS011;9774;52.034;5.342;2022-09-25T09:48:47;3.13;;;0.30;;
19280;SDS011;9774;52.034;5.342;2022-09-25T09:51:24;2.05;;;0.50;;
19280;SDS011;9774;52.034;5.342;2022-09-25T09:53:57;4.28;;;0.50;;
19280;SDS011;9774;52.034;5.342;2022-09-25T09:56:29;2.90;;;0.57;;
19280;SDS011;9774;52.034;5.342;2022-09-25T09:59:01;2.45;;;0.70;;
19280;SDS011;9774;52.034;5.342;2022-09-25T10:01:31;1.70;;;0.80;;
19280;SDS011;9774;52.034;5.342;2022-09-25T10:04:02;1.27;;;0.32;;
19280;SDS011;9774;52.034;5.342;2022-09-25T10:06:34;1.90;;;0.38;;
19280;SDS011;9774;52.034;5.342;2022-09-25T10:09:03;2.17;;;0.40;;
19280;SDS011;9774;52.034;5.342;2022-09-25T10:11:32;1.58;;;0.50;;
19280;SDS011;9774;52.034;5.342;2022-09-25T10:14:02;1.58;;;0.20;;
19280;SDS011;9774;52.034;5.342;2022-09-25T10:16:30;2.45;;;0.30;;
19280;SDS011;9774;52.034;5.342;2022-09-25T10:18:58;1.45;;;0.40;;
19280;SDS011;9774;52.034;5.342;2022-09-25T10:21:30;0.90;;;0.60;;
19280;SDS011;9774;52.034;5.342;2022-09-25T10:24:03;1.73;;;0.40;;
19280;SDS011;9774;52.034;5.342;2022-09-25T10:26:31;1.27;;;0.40;;
19280;SDS011;9774;52.034;5.342;2022-09-25T10:29:01;0.40;;;0.15;;
19280;SDS011;9774;52.034;5.342;2022-09-25T10:31:55;2.25;;;0.88;;
19280;SDS011;9774;52.034;5.342;2022-09-25T10:34:25;1.95;;;0.55;;
19280;SDS011;9774;52.034;5.342;2022-09-25T10:36:54;1.05;;;0.30;;
19280;SDS011;9774;52.034;5.342;2022-09-25T10:39:26;0.73;;;0.40;;
19280;SDS011;9774;52.034;5.342;2022-09-25T10:41:55;1.45;;;0.43;;
19280;SDS011;9774;52.034;5.342;2022-09-25T10:44:29;1.77;;;0.32;;
19280;SDS011;9774;52.034;5.342;2022-09-25T10:47:25;3.72;;;0.38;;
19280;SDS011;9774;52.034;5.342;2022-09-25T10:50:15;1.58;;;0.40;;
19280;SDS011;9774;52.034;5.342;2022-09-25T10:52:45;1.10;;;0.32;;
19280;SDS011;9774;52.034;5.342;2022-09-25T10:55:19;2.28;;;0.40;;
19280;SDS011;9774;52.034;5.342;2022-09-25T10:57:53;2.22;;;0.30;;
19280;SDS011;9774;52.034;5.342;2022-09-25T11:00:28;1.02;;;0.30;;
19280;SDS011;9774;52.034;5.342;2022-09-25T11:02:57;3.05;;;0.47;;
19280;SDS011;9774;52.034;5.342;2022-09-25T11:05:28;2.53;;;0.30;;
19280;SDS011;9774;52.034;5.342;2022-09-25T11:07:58;0.65;;;0.20;;
19280;SDS011;9774;52.034;5.342;2022-09-25T11:10:28;1.17;;;0.30;;
19280;SDS011;9774;52.034;5.342;2022-09-25T11:12:59;0.50;;;0.32;;
19280;SDS011;9774;52.034;5.342;2022-09-25T11:15:31;1.15;;;0.30;;
19280;SDS011;9774;52.034;5.342;2022-09-25T11:18:03;3.40;;;0.50;;
19280;SDS011;9774;52.034;5.342;2022-09-25T11:20:31;1.10;;;0.50;;
19280;SDS011;9774;52.034;5.342;2022-09-25T11:23:01;0.43;;;0.20;;
19280;SDS011;9774;52.034;5.342;2022-09-25T11:25:46;0.40;;;0.35;;
19280;SDS011;9774;52.034;5.342;2022-09-25T11:28:19;1.55;;;0.30;;
19280;SDS011;9774;52.034;5.342;2022-09-25T11:30:57;1.52;;;0.60;;
19280;SDS011;9774;52.034;5.342;2022-09-25T11:33:39;1.27;;;0.45;;
19280;SDS011;9774;52.034;5.342;2022-09-25T11:36:15;0.85;;;0.30;;
19280;SDS011;9774;52.034;5.342;2022-09-25T11:38:46;0.70;;;0.40;;
19280;SDS011;9774;52.034;5.342;2022-09-25T11:41:35;1.40;;;0.52;;
19280;SDS011;9774;52.034;5.342;2022-09-25T11:44:12;0.55;;;0.20;;
19280;SDS011;9774;52.034;5.342;2022-09-25T11:46:49;2.25;;;0.50;;
19280;SDS011;9774;52.034;5.342;2022-09-25T11:49:26;0.25;;;0.20;;
19280;SDS011;9774;52.034;5.342;2022-09-25T11:55:13;0.70;;;0.30;;
19280;SDS011;9774;52.034;5.342;2022-09-25T11:58:12;1.38;;;0.28;;
19280;SDS011;9774;52.034;5.342;2022-09-25T12:00:55;0.45;;;0.13;;
19280;SDS011;9774;52.034;5.342;2022-09-25T12:03:35;1.48;;;0.20;;
19280;SDS011;9774;52.034;5.342;2022-09-25T12:09:11;0.60;;;0.20;;
19280;SDS011;9774;52.034;5.342;2022-09-25T12:11:53;1.05;;;0.30;;
19280;SDS011;9774;52.034;5.342;2022-09-25T12:14:27;0.70;;;0.60;;
19280;SDS011;9774;52.034;5.342;2022-09-25T12:17:00;0.50;;;0.25;;
19280;SDS011;9774;52.034;5.342;2022-09-25T12:19:36;0.25;;;0.10;;
19280;SDS011;9774;52.034;5.342;2022-09-25T12:22:12;0.40;;;0.30;;
19280;SDS011;9774;52.034;5.342;2022-09-25T12:24:56;1.75;;;0.10;;
19280;SDS011;9774;52.034;5.342;2022-09-25T12:27:35;0.35;;;0.20;;
19280;SDS011;9774;52.034;5.342;2022-09-25T12:30:14;0.88;;;0.20;;
19280;SDS011;9774;52.034;5.342;2022-09-25T12:32:50;0.93;;;0.30;;
19280;SDS011;9774;52.034;5.342;2022-09-25T12:35:33;0.30;;;0.17;;
19280;SDS011;9774;52.034;5.342;2022-09-25T12:38:08;0.38;;;0.15;;
19280;SDS011;9774;52.034;5.342;2022-09-25T12:40:44;1.13;;;0.20;;
19280;SDS011;9774;52.034;5.342;2022-09-25T12:43:16;0.98;;;0.20;;
19280;SDS011;9774;52.034;5.342;2022-09-25T12:45:48;0.10;;;0.10;;
19280;SDS011;9774;52.034;5.342;2022-09-25T12:48:22;0.63;;;0.20;;
19280;SDS011;9774;52.034;5.342;2022-09-25T12:50:56;1.17;;;0.30;;
19280;SDS011;9774;52.034;5.342;2022-09-25T12:53:28;0.50;;;0.10;;
19280;SDS011;9774;52.034;5.342;2022-09-25T12:56:01;2.03;;;0.10;;
19280;SDS011;9774;52.034;5.342;2022-09-25T12:58:49;0.32;;;0.30;;
19280;SDS011;9774;52.034;5.342;2022-09-25T13:01:39;3.22;;;0.45;;
19280;SDS011;9774;52.034;5.342;2022-09-25T13:04:17;1.55;;;0.20;;
19280;SDS011;9774;52.034;5.342;2022-09-25T13:07:02;0.10;;;0.10;;
19280;SDS011;9774;52.034;5.342;2022-09-25T13:09:41;0.28;;;0.20;;
19280;SDS011;9774;52.034;5.342;2022-09-25T13:12:15;1.80;;;0.13;;
19280;SDS011;9774;52.034;5.342;2022-09-25T13:14:51;0.82;;;0.30;;
19280;SDS011;9774;52.034;5.342;2022-09-25T13:17:22;2.05;;;0.38;;
19280;SDS011;9774;52.034;5.342;2022-09-25T13:19:49;0.43;;;0.10;;
19280;SDS011;9774;52.034;5.342;2022-09-25T13:22:18;0.52;;;0.10;;
19280;SDS011;9774;52.034;5.342;2022-09-25T13:24:49;1.13;;;0.40;;
19280;SDS011;9774;52.034;5.342;2022-09-25T13:27:23;0.22;;;0.20;;
19280;SDS011;9774;52.034;5.342;2022-09-25T13:29:55;0.93;;;0.30;;
19280;SDS011;9774;52.034;5.342;2022-09-25T13:32:25;1.90;;;0.32;;
19280;SDS011;9774;52.034;5.342;2022-09-25T13:34:59;0.75;;;0.32;;
19280;SDS011;9774;52.034;5.342;2022-09-25T13:37:30;0.63;;;0.30;;
19280;SDS011;9774;52.034;5.342;2022-09-25T13:40:01;0.25;;;0.20;;
19280;SDS011;9774;52.034;5.342;2022-09-25T13:43:15;3.10;;;0.28;;
19280;SDS011;9774;52.034;5.342;2022-09-25T13:45:45;0.47;;;0.28;;
19280;SDS011;9774;52.034;5.342;2022-09-25T13:48:32;0.65;;;0.20;;
19280;SDS011;9774;52.034;5.342;2022-09-25T13:54:02;0.95;;;0.20;;
19280;SDS011;9774;52.034;5.342;2022-09-25T13:56:48;1.95;;;0.50;;
19280;SDS011;9774;52.034;5.342;2022-09-25T13:59:21;1.33;;;0.40;;
19280;SDS011;9774;52.034;5.342;2022-09-25T14:04:51;2.33;;;0.40;;
19280;SDS011;9774;52.034;5.342;2022-09-25T14:07:19;1.23;;;0.73;;
19280;SDS011;9774;52.034;5.342;2022-09-25T14:09:52;3.30;;;1.40;;
19280;SDS011;9774;52.034;5.342;2022-09-25T14:12:25;1.20;;;0.95;;
19280;SDS011;9774;52.034;5.342;2022-09-25T14:14:56;2.33;;;1.00;;
19280;SDS011;9774;52.034;5.342;2022-09-25T14:17:28;2.15;;;1.20;;
19280;SDS011;9774;52.034;5.342;2022-09-25T14:19:57;2.83;;;2.22;;
19280;SDS011;9774;52.034;5.342;2022-09-25T14:22:32;4.53;;;3.00;;
19280;SDS011;9774;52.034;5.342;2022-09-25T14:25:22;3.10;;;2.17;;
19280;SDS011;9774;52.034;5.342;2022-09-25T14:27:51;4.70;;;1.50;;
19280;SDS011;9774;52.034;5.342;2022-09-25T14:30:19;3.20;;;1.55;;
19280;SDS011;9774;52.034;5.342;2022-09-25T14:32:56;1.15;;;0.90;;
19280;SDS011;9774;52.034;5.342;2022-09-25T14:35:37;2.50;;;1.00;;
19280;SDS011;9774;52.034;5.342;2022-09-25T14:38:32;3.75;;;1.23;;
19280;SDS011;9774;52.034;5.342;2022-09-25T14:41:13;1.45;;;0.90;;
19280;SDS011;9774;52.034;5.342;2022-09-25T14:43:59;2.60;;;1.27;;
19280;SDS011;9774;52.034;5.342;2022-09-25T14:46:40;5.32;;;1.30;;
19280;SDS011;9774;52.034;5.342;2022-09-25T14:49:10;1.83;;;1.00;;
19280;SDS011;9774;52.034;5.342;2022-09-25T14:51:47;3.33;;;1.15;;
19280;SDS011;9774;52.034;5.342;2022-09-25T14:54:16;1.30;;;0.60;;
19280;SDS011;9774;52.034;5.342;2022-09-25T14:56:47;3.63;;;0.80;;
19280;SDS011;9774;52.034;5.342;2022-09-25T14:59:19;0.63;;;0.50;;
19280;SDS011;9774;52.034;5.342;2022-09-25T15:01:53;0.93;;;0.60;;
19280;SDS011;9774;52.034;5.342;2022-09-25T15:04:24;0.80;;;0.50;;
19280;SDS011;9774;52.034;5.342;2022-09-25T15:09:29;1.42;;;0.63;;
19280;SDS011;9774;52.034;5.342;2022-09-25T15:12:08;0.40;;;0.40;;
19280;SDS011;9774;52.034;5.342;2022-09-25T15:14:55;0.63;;;0.32;;
19280;SDS011;9774;52.034;5.342;2022-09-25T15:17:26;1.30;;;0.60;;
19280;SDS011;9774;52.034;5.342;2022-09-25T15:19:55;0.77;;;0.50;;
19280;SDS011;9774;52.034;5.342;2022-09-25T15:22:27;0.90;;;0.50;;
19280;SDS011;9774;52.034;5.342;2022-09-25T15:24:58;1.60;;;0.77;;
19280;SDS011;9774;52.034;5.342;2022-09-25T15:27:31;1.17;;;0.50;;
19280;SDS011;9774;52.034;5.342;2022-09-25T15:30:02;0.63;;;0.40;;
19280;SDS011;9774;52.034;5.342;2022-09-25T15:32:32;2.00;;;0.80;;
19280;SDS011;9774;52.034;5.342;2022-09-25T15:35:04;2.05;;;0.40;;
19280;SDS011;9774;52.034;5.342;2022-09-25T15:37:33;0.95;;;0.70;;
19280;SDS011;9774;52.034;5.342;2022-09-25T15:40:08;1.25;;;0.50;;
19280;SDS011;9774;52.034;5.342;2022-09-25T15:42:48;0.70;;;0.40;;
19280;SDS011;9774;52.034;5.342;2022-09-25T15:48:07;2.42;;;0.50;;
19280;SDS011;9774;52.034;5.342;2022-09-25T15:50:55;1.20;;;0.50;;